Time,TemperatureF,DewpointF,PressureIn,WindDirection,WindDirectionDegrees,WindSpeedMPH,WindSpeedGustMPH,Humidity,HourlyPrecipIn,Conditions,Clouds,dailyrainin,SoftwareType,DateUTC
2013-02-10 00:01:00,34.0,-99.9,30.40,NW,317,4.0,5.0,-999,-99.99,,,-99.99,,2013-02-10 05:01:00,
2013-02-10 00:11:00,-999.0,-99.9,30.40,NW,315,4.0,5.0,-999,-99.99,,,-99.99,,2013-02-10 05:11:00,
2013-02-10 00:23:00,33.0,-99.9,30.40,North,-999,-999.0,-999.0,-999,-99.99,,,-99.99,,2013-02-10 05:23:00,
2013-02-10 00:32:00,33.0,-99.9,30.40,NNW,336,2.0,5.0,-999,-99.99,,,-99.99,,2013-02-10 05:32:00,
2013-02-10 00:42:00,33.0,-99.9,30.40,NNW,331,3.0,3.0,-999,-99.99,,,-99.99,,2013-02-10 05:42:00,
2013-02-10 00:52:00,-999.0,-99.9,30.40,NW,324,3.0,4.0,-999,-99.99,,,-99.99,,2013-02-10 05:52:00,
2013-02-10 01:02:00,33.0,-99.9,30.40,NNW,339,3.0,4.0,-999,-99.99,,,-99.99,,2013-02-10 06:02:00,
2013-02-10 01:11:00,34.0,-99.9,30.40,North,-999,-999.0,-999.0,-999,-99.99,,,-99.99,,2013-02-10 06:11:00,
2013-02-10 01:22:00,-999.0,-99.9,30.39,North,6,3.0,7.0,-999,-99.99,,,-99.99,,2013-02-10 06:22:00,
2013-02-10 01:32:00,34.0,-99.9,30.40,NNE,12,3.0,8.0,-999,-99.99,,,-99.99,,2013-02-10 06:32:00,
2013-02-10 01:42:00,-999.0,-99.9,30.40,North,8,4.0,9.0,-999,-99.99,,,-99.99,,2013-02-10 06:42:00,
2013-02-10 01:52:00,34.0,-99.9,30.40,North,-999,-999.0,-999.0,-999,-99.99,,,-99.99,,2013-02-10 06:52:00,
2013-02-10 02:01:00,34.0,-99.9,30.40,North,359,5.0,9.0,-999,-99.99,,,-99.99,,2013-02-10 07:01:00,
2013-02-10 02:11:00,34.0,-99.9,30.40,North,357,5.0,8.0,-999,-99.99,,,-99.99,,2013-02-10 07:11:00,
2013-02-10 02:21:00,-999.0,-99.9,30.41,North,6,2.0,6.0,-999,-99.99,,,-99.99,,2013-02-10 07:21:00,
2013-02-10 02:32:00,34.0,-99.9,30.41,North,359,4.0,6.0,-999,-99.99,,,-99.99,,2013-02-10 07:32:00,
2013-02-10 02:42:00,34.0,-99.9,30.41,North,-999,-999.0,-999.0,-999,-99.99,,,-99.99,,2013-02-10 07:42:00,
2013-02-10 02:52:00,34.0,-99.9,30.42,North,-999,-999.0,-999.0,-999,-99.99,,,-99.99,,2013-02-10 07:52:00,
2013-02-10 03:01:00,33.0,-99.9,30.42,North,4,2.0,6.0,-999,-99.99,,,-99.99,,2013-02-10 08:01:00,
2013-02-10 03:11:00,33.0,-99.9,30.42,North,-999,-999.0,-999.0,-999,-99.99,,,-99.99,,2013-02-10 08:11:00,
2013-02-10 03:21:00,33.0,-99.9,30.41,North,-999,-999.0,-999.0,-999,-99.99,,,-99.99,,2013-02-10 08:21:00,
2013-02-10 03:32:00,33.0,-99.9,30.41,North,2,4.0,6.0,-999,-99.99,,,-99.99,,2013-02-10 08:32:00,
2013-02-10 03:43:00,33.0,-99.9,30.41,North,-999,-999.0,-999.0,-999,-99.99,,,-99.99,,2013-02-10 08:43:00,
2013-02-10 03:52:00,-999.0,-99.9,30.41,NE,35,3.0,6.0,-999,-99.99,,,-99.99,,2013-02-10 08:52:00,
2013-02-10 04:02:00,33.0,-99.9,30.41,North,355,2.0,5.0,-999,-99.99,,,-99.99,,2013-02-10 09:02:00,
2013-02-10 04:11:00,33.0,-99.9,30.42,NNE,27,1.0,4.0,-999,-99.99,,,-99.99,,2013-02-10 09:11:00,
2013-02-10 04:21:00,33.0,-99.9,30.42,North,-999,-999.0,-999.0,-999,-99.99,,,-99.99,,2013-02-10 09:21:00,
2013-02-10 04:32:00,31.0,-99.9,30.42,SSE,162,3.0,3.0,-999,-99.99,,,-99.99,,2013-02-10 09:32:00,
2013-02-10 04:42:00,-999.0,-99.9,30.43,SSE,164,3.0,3.0,-999,-99.99,,,-99.99,,2013-02-10 09:42:00,
2013-02-10 04:52:00,-999.0,-99.9,30.43,SSW,192,2.0,2.0,-999,-99.99,,,-99.99,,2013-02-10 09:52:00,
2013-02-10 05:01:00,30.0,-99.9,30.43,SSW,202,1.0,1.0,-999,-99.99,,,-99.99,,2013-02-10 10:01:00,
2013-02-10 05:11:00,30.0,-99.9,30.44,North,-999,-999.0,-999.0,-999,-99.99,,,-99.99,,2013-02-10 10:11:00,
2013-02-10 05:21:00,29.0,-99.9,30.44,North,-999,-999.0,-999.0,-999,-99.99,,,-99.99,,2013-02-10 10:21:00,
2013-02-10 05:32:00,29.0,-99.9,30.43,North,-999,-999.0,-999.0,-999,-99.99,,,-99.99,,2013-02-10 10:32:00,
2013-02-10 05:42:00,29.0,-99.9,30.43,East,98,1.0,1.0,-999,-99.99,,,-99.99,,2013-02-10 10:42:00,
2013-02-10 05:52:00,30.0,-99.9,30.43,North,-999,-999.0,-999.0,-999,-99.99,,,-99.99,,2013-02-10 10:52:00,
2013-02-10 06:01:00,30.0,-99.9,30.43,SE,145,2.0,2.0,-999,-99.99,,,-99.99,,2013-02-10 11:01:00,
2013-02-10 06:11:00,30.0,-99.9,30.43,North,-999,-999.0,-999.0,-999,-99.99,,,-99.99,,2013-02-10 11:11:00,
2013-02-10 06:22:00,-999.0,-99.9,30.44,WSW,250,1.0,1.0,-999,-99.99,,,-99.99,,2013-02-10 11:22:00,
2013-02-10 06:32:00,28.0,-99.9,30.45,SW,215,1.0,2.0,-999,-99.99,,,-99.99,,2013-02-10 11:32:00,
2013-02-10 06:42:00,-999.0,-99.9,30.45,SSE,166,2.0,2.0,-999,-99.99,,,-99.99,,2013-02-10 11:42:00,
2013-02-10 06:52:00,-999.0,-99.9,30.45,SW,218,1.0,1.0,-999,-99.99,,,-99.99,,2013-02-10 11:52:00,
2013-02-10 07:02:00,28.0,-99.9,30.45,SE,131,-999.0,1.0,-999,-99.99,,,-99.99,,2013-02-10 12:02:00,
2013-02-10 07:12:00,29.0,-99.9,30.45,SE,144,2.0,2.0,-999,-99.99,,,-99.99,,2013-02-10 12:12:00,
2013-02-10 07:22:00,-999.0,-99.9,30.46,SSE,152,3.0,3.0,-999,-99.99,,,-99.99,,2013-02-10 12:22:00,
2013-02-10 07:32:00,28.0,-99.9,30.47,South,170,3.0,3.0,-999,-99.99,,,-99.99,,2013-02-10 12:32:00,
2013-02-10 07:42:00,29.0,-99.9,30.47,SSE,154,1.0,2.0,-999,-99.99,,,-99.99,,2013-02-10 12:42:00,
2013-02-10 07:52:00,29.0,-99.9,30.47,North,-999,-999.0,-999.0,-999,-99.99,,,-99.99,,2013-02-10 12:52:00,
2013-02-10 08:02:00,29.0,-99.9,30.48,North,-999,-999.0,-999.0,-999,-99.99,,,-99.99,,2013-02-10 13:02:00,
2013-02-10 08:12:00,29.0,-99.9,30.48,North,-999,-999.0,-999.0,-999,-99.99,,,-99.99,,2013-02-10 13:12:00,
2013-02-10 08:21:00,30.0,-99.9,30.49,North,-999,-999.0,-999.0,-999,-99.99,,,-99.99,,2013-02-10 13:21:00,
2013-02-10 08:32:00,31.0,-99.9,30.48,ESE,108,4.0,5.0,-999,-99.99,,,-99.99,,2013-02-10 13:32:00,
2013-02-10 08:42:00,31.0,-99.9,30.48,North,-999,-999.0,-999.0,-999,-99.99,,,-99.99,,2013-02-10 13:42:00,
2013-02-10 08:52:00,32.0,-99.9,30.49,North,-999,-999.0,-999.0,-999,-99.99,,,-99.99,,2013-02-10 13:52:00,
2013-02-10 09:02:00,32.0,-99.9,30.48,ESE,104,4.0,6.0,-999,-99.99,,,-99.99,,2013-02-10 14:02:00,
2013-02-10 09:11:00,32.0,-99.9,30.49,SSE,147,4.0,6.0,-999,-99.99,,,-99.99,,2013-02-10 14:11:00,
2013-02-10 09:22:00,32.0,-99.9,30.49,North,-999,-999.0,-999.0,-999,-99.99,,,-99.99,,2013-02-10 14:22:00,
2013-02-10 09:32:00,33.0,-99.9,30.48,SE,141,3.0,4.0,-999,-99.99,,,-99.99,,2013-02-10 14:32:00,
2013-02-10 09:42:00,-999.0,-99.9,30.48,SE,134,3.0,5.0,-999,-99.99,,,-99.99,,2013-02-10 14:42:00,
2013-02-10 09:52:00,-999.0,-99.9,30.48,SE,146,1.0,4.0,-999,-99.99,,,-99.99,,2013-02-10 14:52:00,
2013-02-10 10:02:00,34.0,-99.9,30.48,SSW,211,3.0,4.0,-999,-99.99,,,-99.99,,2013-02-10 15:02:00,
2013-02-10 10:12:00,34.0,-99.9,30.49,North,-999,-999.0,-999.0,-999,-99.99,,,-99.99,,2013-02-10 15:12:00,
2013-02-10 10:22:00,35.0,-99.9,30.48,North,-999,-999.0,-999.0,-999,-99.99,,,-99.99,,2013-02-10 15:22:00,
2013-02-10 10:32:00,35.0,-99.9,30.49,SSW,202,3.0,4.0,-999,-99.99,,,-99.99,,2013-02-10 15:32:00,
2013-02-10 10:42:00,35.0,-99.9,30.49,SW,226,4.0,6.0,-999,-99.99,,,-99.99,,2013-02-10 15:42:00,
2013-02-10 10:52:00,35.0,-99.9,30.49,North,-999,-999.0,-999.0,-999,-99.99,,,-99.99,,2013-02-10 15:52:00,
2013-02-10 11:02:00,35.0,-99.9,30.48,SSE,154,3.0,5.0,-999,-99.99,,,-99.99,,2013-02-10 16:02:00,
2013-02-10 11:12:00,35.0,-99.9,30.49,SSW,207,4.0,6.0,-999,-99.99,,,-99.99,,2013-02-10 16:12:00,
2013-02-10 11:22:00,-999.0,-99.9,30.49,SSW,204,5.0,6.0,-999,-99.99,,,-99.99,,2013-02-10 16:22:00,
2013-02-10 11:32:00,36.0,-99.9,30.49,SSW,200,6.0,7.0,-999,-99.99,,,-99.99,,2013-02-10 16:32:00,
2013-02-10 11:42:00,-999.0,-99.9,30.48,SSW,201,5.0,8.0,-999,-99.99,,,-99.99,,2013-02-10 16:42:00,
2013-02-10 11:52:00,35.0,-99.9,30.47,North,-999,-999.0,-999.0,-999,-99.99,,,-99.99,,2013-02-10 16:52:00,
2013-02-10 12:02:00,36.0,-99.9,30.46,SSW,193,5.0,6.0,-999,-99.99,,,-99.99,,2013-02-10 17:02:00,
2013-02-10 12:12:00,-999.0,-99.9,30.46,SSW,196,6.0,7.0,-999,-99.99,,,-99.99,,2013-02-10 17:12:00,
2013-02-10 12:22:00,37.0,-99.9,30.44,North,-999,-999.0,-999.0,-999,-99.99,,,-99.99,,2013-02-10 17:22:00,
2013-02-10 12:32:00,37.0,-99.9,30.44,SW,223,3.0,6.0,-999,-99.99,,,-99.99,,2013-02-10 17:32:00,
2013-02-10 12:42:00,38.0,-99.9,30.45,SW,230,5.0,6.0,-999,-99.99,,,-99.99,,2013-02-10 17:42:00,
2013-02-10 12:53:00,-999.0,-99.9,30.44,SW,230,5.0,10.0,-999,-99.99,,,-99.99,,2013-02-10 17:53:00,
2013-02-10 13:02:00,39.0,-99.9,30.44,SW,220,6.0,9.0,-999,-99.99,,,-99.99,,2013-02-10 18:02:00,
2013-02-10 13:12:00,38.0,-99.9,30.44,North,-999,-999.0,-999.0,-999,-99.99,,,-99.99,,2013-02-10 18:12:00,
2013-02-10 13:22:00,39.0,-99.9,30.43,North,-999,-999.0,-999.0,-999,-99.99,,,-99.99,,2013-02-10 18:22:00,
2013-02-10 13:32:00,39.0,-99.9,30.42,South,182,7.0,9.0,-999,-99.99,,,-99.99,,2013-02-10 18:32:00,
2013-02-10 13:42:00,39.0,-99.9,30.41,North,-999,-999.0,-999.0,-999,-99.99,,,-99.99,,2013-02-10 18:42:00,
2013-02-10 13:52:00,40.0,-99.9,30.41,North,-999,-999.0,-999.0,-999,-99.99,,,-99.99,,2013-02-10 18:52:00,
2013-02-10 14:02:00,40.0,-99.9,30.40,SSW,209,7.0,10.0,-999,-99.99,,,-99.99,,2013-02-10 19:02:00,
2013-02-10 14:12:00,40.0,-99.9,30.40,South,183,6.0,9.0,-999,-99.99,,,-99.99,,2013-02-10 19:12:00,
2013-02-10 14:22:00,-999.0,-99.9,30.39,South,179,6.0,9.0,-999,-99.99,,,-99.99,,2013-02-10 19:22:00,
2013-02-10 14:32:00,41.0,-99.9,30.38,SSW,203,8.0,9.0,-999,-99.99,,,-99.99,,2013-02-10 19:32:00,
2013-02-10 14:43:00,41.0,-99.9,30.38,North,-999,-999.0,-999.0,-999,-99.99,,,-99.99,,2013-02-10 19:43:00,
2013-02-10 14:52:00,-999.0,-99.9,30.37,SSW,200,9.0,12.0,-999,-99.99,,,-99.99,,2013-02-10 19:52:00,
2013-02-10 15:02:00,41.0,-99.9,30.37,SSW,194,7.0,11.0,-999,-99.99,,,-99.99,,2013-02-10 20:02:00,
2013-02-10 15:12:00,-999.0,-99.9,30.36,South,190,9.0,11.0,-999,-99.99,,,-99.99,,2013-02-10 20:12:00,
2013-02-10 15:22:00,42.0,-99.9,30.36,North,-999,-999.0,-999.0,-999,-99.99,,,-99.99,,2013-02-10 20:22:00,
2013-02-10 15:32:00,42.0,-99.9,30.36,South,190,9.0,12.0,-999,-99.99,,,-99.99,,2013-02-10 20:32:00,
2013-02-10 15:42:00,43.0,-99.9,30.35,SSW,197,9.0,12.0,-999,-99.99,,,-99.99,,2013-02-10 20:42:00,
2013-02-10 15:53:00,43.0,-99.9,30.35,North,-999,-999.0,-999.0,-999,-99.99,,,-99.99,,2013-02-10 20:53:00,
2013-02-10 16:03:00,42.0,-99.9,30.35,SSW,192,9.0,11.0,-999,-99.99,,,-99.99,,2013-02-10 21:03:00,
2013-02-10 16:12:00,42.0,-99.9,30.35,North,-999,-999.0,-999.0,-999,-99.99,,,-99.99,,2013-02-10 21:12:00,
2013-02-10 16:22:00,-999.0,-99.9,30.35,SSW,196,8.0,11.0,-999,-99.99,,,-99.99,,2013-02-10 21:22:00,
2013-02-10 16:32:00,42.0,-99.9,30.34,SSW,192,8.0,11.0,-999,-99.99,,,-99.99,,2013-02-10 21:32:00,
2013-02-10 16:42:00,43.0,-99.9,30.34,North,-999,-999.0,-999.0,-999,-99.99,,,-99.99,,2013-02-10 21:42:00,
2013-02-10 16:52:00,43.0,-99.9,30.34,North,-999,-999.0,-999.0,-999,-99.99,,,-99.99,,2013-02-10 21:52:00,
2013-02-10 17:02:00,42.0,-99.9,30.33,SSW,196,8.0,13.0,-999,-99.99,,,-99.99,,2013-02-10 22:02:00,
2013-02-10 17:12:00,42.0,-99.9,30.34,SSW,200,8.0,11.0,-999,-99.99,,,-99.99,,2013-02-10 22:12:00,
2013-02-10 17:22:00,42.0,-99.9,30.34,North,-999,-999.0,-999.0,-999,-99.99,,,-99.99,,2013-02-10 22:22:00,
2013-02-10 17:32:00,42.0,-99.9,30.35,South,188,7.0,10.0,-999,-99.99,,,-99.99,,2013-02-10 22:32:00,
2013-02-10 17:42:00,-999.0,-99.9,30.34,South,187,7.0,10.0,-999,-99.99,,,-99.99,,2013-02-10 22:42:00,
2013-02-10 17:53:00,-999.0,-99.9,30.33,South,169,7.0,8.0,-999,-99.99,,,-99.99,,2013-02-10 22:53:00,
2013-02-10 18:02:00,42.0,-99.9,30.33,SSE,167,5.0,6.0,-999,-99.99,,,-99.99,,2013-02-10 23:02:00,
2013-02-10 18:12:00,43.0,-99.9,30.33,SSE,157,7.0,9.0,-999,-99.99,,,-99.99,,2013-02-10 23:12:00,
2013-02-10 18:22:00,-999.0,-99.9,30.33,SSE,161,5.0,9.0,-999,-99.99,,,-99.99,,2013-02-10 23:22:00,
2013-02-10 18:32:00,42.0,-99.9,30.34,SE,144,7.0,10.0,-999,-99.99,,,-99.99,,2013-02-10 23:32:00,
2013-02-10 18:42:00,-999.0,-99.9,30.34,SE,141,7.0,10.0,-999,-99.99,,,-99.99,,2013-02-10 23:42:00,
2013-02-10 18:52:00,42.0,-99.9,30.34,North,-999,-999.0,-999.0,-999,-99.99,,,-99.99,,2013-02-10 23:52:00,
2013-02-10 19:02:00,42.0,-99.9,30.33,SE,146,6.0,10.0,-999,-99.99,,,-99.99,,2013-02-11 00:02:00,
2013-02-10 19:11:00,-999.0,-99.9,30.33,SE,144,6.0,8.0,-999,-99.99,,,-99.99,,2013-02-11 00:11:00,
2013-02-10 19:22:00,-999.0,-99.9,30.33,SE,146,5.0,9.0,-999,-99.99,,,-99.99,,2013-02-11 00:22:00,
2013-02-10 19:32:00,42.0,-99.9,30.32,SE,142,5.0,8.0,-999,-99.99,,,-99.99,,2013-02-11 00:32:00,
2013-02-10 19:42:00,42.0,-99.9,30.33,SE,133,6.0,9.0,-999,-99.99,,,-99.99,,2013-02-11 00:42:00,
2013-02-10 19:52:00,42.0,-99.9,30.33,North,-999,-999.0,-999.0,-999,-99.99,,,-99.99,,2013-02-11 00:52:00,
2013-02-10 20:02:00,41.0,-99.9,30.32,SSE,147,7.0,11.0,-999,-99.99,,,-99.99,,2013-02-11 01:02:00,
2013-02-10 20:11:00,41.0,-99.9,30.32,SSE,150,6.0,10.0,-999,-99.99,,,-99.99,,2013-02-11 01:11:00,
2013-02-10 20:22:00,41.0,-99.9,30.32,North,-999,-999.0,-999.0,-999,-99.99,,,-99.99,,2013-02-11 01:22:00,
2013-02-10 20:32:00,41.0,-99.9,30.32,SE,143,9.0,10.0,-999,-99.99,,,-99.99,,2013-02-11 01:32:00,
2013-02-10 20:42:00,40.0,-99.9,30.33,North,-999,-999.0,-999.0,-999,-99.99,,,-99.99,,2013-02-11 01:42:00,
2013-02-10 20:52:00,-999.0,-99.9,30.33,SE,132,4.0,6.0,-999,-99.99,,,-99.99,,2013-02-11 01:52:00,
2013-02-10 21:01:00,40.0,-99.9,30.33,SSE,153,6.0,8.0,-999,-99.99,,,-99.99,,2013-02-11 02:01:00,
2013-02-10 21:11:00,-999.0,-99.9,30.33,SE,142,6.0,8.0,-999,-99.99,,,-99.99,,2013-02-11 02:11:00,
2013-02-10 21:21:00,40.0,-99.9,30.32,North,-999,-999.0,-999.0,-999,-99.99,,,-99.99,,2013-02-11 02:21:00,
2013-02-10 21:32:00,39.0,-99.9,30.32,SE,134,6.0,7.0,-999,-99.99,,,-99.99,,2013-02-11 02:32:00,
2013-02-10 21:42:00,39.0,-99.9,30.31,SE,144,6.0,8.0,-999,-99.99,,,-99.99,,2013-02-11 02:42:00,
2013-02-10 21:52:00,39.0,-99.9,30.31,North,-999,-999.0,-999.0,-999,-99.99,,,-99.99,,2013-02-11 02:52:00,
2013-02-10 22:02:00,39.0,-99.9,30.31,SSE,159,4.0,5.0,-999,-99.99,,,-99.99,,2013-02-11 03:02:00,
2013-02-10 22:11:00,39.0,-99.9,30.30,North,-999,-999.0,-999.0,-999,-99.99,,,-99.99,,2013-02-11 03:11:00,
2013-02-10 22:22:00,-999.0,-99.9,30.29,SSE,156,6.0,11.0,-999,-99.99,,,-99.99,,2013-02-11 03:22:00,
2013-02-10 22:32:00,39.0,-99.9,30.28,SSE,164,9.0,10.0,-999,-99.99,,,-99.99,,2013-02-11 03:32:00,
2013-02-10 22:42:00,39.0,-99.9,30.28,North,-999,-999.0,-999.0,-999,-99.99,,,-99.99,,2013-02-11 03:42:00,
2013-02-10 22:52:00,39.0,-99.9,30.29,North,-999,-999.0,-999.0,-999,-99.99,,,-99.99,,2013-02-11 03:52:00,
2013-02-10 23:02:00,39.0,-99.9,30.28,SSE,163,4.0,6.0,-999,-99.99,,,-99.99,,2013-02-11 04:02:00,
2013-02-10 23:11:00,39.0,-99.9,30.28,SSE,162,5.0,7.0,-999,-99.99,,,-99.99,,2013-02-11 04:11:00,
2013-02-10 23:22:00,-999.0,-99.9,30.28,SSE,164,4.0,5.0,-999,-99.99,,,-99.99,,2013-02-11 04:22:00,
2013-02-10 23:32:00,39.0,-99.9,30.27,SSE,147,4.0,6.0,-999,-99.99,,,-99.99,,2013-02-11 04:32:00,
2013-02-10 23:42:00,-999.0,-99.9,30.27,SSE,153,3.0,6.0,-999,-99.99,,,-99.99,,2013-02-11 04:42:00,
2013-02-10 23:52:00,-999.0,-99.9,30.26,SE,136,4.0,7.0,-999,-99.99,,,-99.99,,2013-02-11 04:52:00,